Time;durP1;ratioP1;P1;durP2;ratioP2;P2;SDS_P1;SDS_P2;PMS_P1;PMS_P2;Temp;Humidity;BMP_temperature;BMP_pressure;BME280_temperature;BME280_humidity;BME280_pressure;Samples;Min_cycle;Max_cycle;Signal;HPM_P1;HPM_P2
2022/11/13 00:00:17;;;;;;;26.27;17.85;;;;;;;6.30;100.00;102515.19;5112248;28;20024;-75
2022/11/13 00:02:42;;;;;;;24.70;17.50;;;;;;;6.22;100.00;102523.06;5111486;28;20488;-75
2022/11/13 00:08:29;;;;;;;25.65;16.08;;;;;;;6.06;100.00;102513.00;5112649;28;20080;-75
2022/11/13 00:11:07;;;;;;;25.20;15.98;;;;;;;6.04;100.00;102504.34;5094048;28;20217;-75
2022/11/13 00:13:33;;;;;;;26.02;16.88;;;;;;;5.98;100.00;102496.97;5111379;28;20055;-75
2022/11/13 00:19:20;;;;;;;24.45;15.23;;;;;;;5.94;100.00;102494.75;5111869;28;20442;-76
2022/11/13 00:25:07;;;;;;;24.50;15.32;;;;;;;5.86;100.00;102492.78;5110885;28;20093;-76
2022/11/13 00:30:59;;;;;;;23.00;15.25;;;;;;;5.86;100.00;102493.63;5112587;28;20095;-76
2022/11/13 00:36:46;;;;;;;23.80;16.33;;;;;;;5.73;100.00;102487.75;5112803;28;20057;-75
2022/11/13 00:42:33;;;;;;;21.88;15.27;;;;;;;5.67;100.00;102484.84;5112594;28;20172;-76
2022/11/13 00:44:59;;;;;;;22.55;15.40;;;;;;;5.59;100.00;102477.59;5093328;28;20130;-76
2022/11/13 00:50:46;;;;;;;25.58;15.60;;;;;;;5.37;100.00;102470.75;5114976;28;20054;-76
2022/11/13 00:53:12;;;;;;;21.20;15.25;;;;;;;5.35;100.00;102477.16;5115461;28;20399;-76
2022/11/13 00:58:59;;;;;;;25.35;15.63;;;;;;;5.23;100.00;102466.72;5115595;28;20046;-76
2022/11/13 01:01:24;;;;;;;21.17;14.75;;;;;;;5.15;100.00;102469.19;5115217;28;20020;-76
2022/11/13 01:07:11;;;;;;;26.50;15.68;;;;;;;5.04;100.00;102469.31;5115332;28;20078;-77
2022/11/13 01:12:58;;;;;;;22.40;15.85;;;;;;;4.92;100.00;102462.50;5115364;28;20088;-76
2022/11/13 01:15:23;;;;;;;22.17;14.63;;;;;;;4.95;100.00;102464.88;5114155;28;20035;-76
2022/11/13 01:17:50;;;;;;;22.75;15.45;;;;;;;4.98;100.00;102461.94;5114992;28;20035;-77
2022/11/13 01:20:16;;;;;;;25.35;15.88;;;;;;;4.99;100.00;102453.00;5114213;28;20129;-77
2022/11/13 01:22:41;;;;;;;21.55;15.02;;;;;;;5.02;100.00;102457.19;5114877;28;20078;-77
2022/11/13 01:25:07;;;;;;;20.40;15.02;;;;;;;5.02;100.00;102465.16;5114858;28;20024;-77
2022/11/13 01:30:54;;;;;;;29.35;15.32;;;;;;;5.09;100.00;102460.97;5115113;28;20039;-78
2022/11/13 01:33:19;;;;;;;22.88;15.40;;;;;;;5.11;100.00;102449.25;5113878;28;20032;-77
2022/11/13 01:35:44;;;;;;;25.00;14.38;;;;;;;5.13;100.00;102436.69;5114756;28;20384;-76
2022/11/13 01:41:33;;;;;;;24.30;13.98;;;;;;;5.22;100.00;102442.97;5114873;28;20047;-75
2022/11/13 01:43:59;;;;;;;25.15;14.63;;;;;;;5.26;100.00;102447.03;5095833;28;20471;-75
2022/11/13 01:46:39;;;;;;;25.60;15.57;;;;;;;5.22;100.00;102441.16;5114262;28;20027;-75
2022/11/13 01:49:10;;;;;;;20.55;14.55;;;;;;;5.21;100.00;102454.56;5114501;28;20038;-77
2022/11/13 01:51:46;;;;;;;20.60;14.18;;;;;;;5.12;100.00;102460.69;5113531;28;20551;-75
2022/11/13 01:54:15;;;;;;;24.13;13.60;;;;;;;5.06;100.00;102440.88;5114256;28;20204;-75
2022/11/13 01:56:42;;;;;;;20.55;13.52;;;;;;;5.03;100.00;102435.84;5113438;28;20047;-75
2022/11/13 01:59:14;;;;;;;20.73;13.05;;;;;;;5.02;100.00;102439.47;5095936;28;20030;-75
2022/11/13 02:05:01;;;;;;;18.70;12.73;;;;;;;4.91;100.00;102421.03;5114389;28;20507;-75
2022/11/13 02:07:27;;;;;;;21.35;12.60;;;;;;;4.94;100.00;102420.78;5114154;28;20019;-75
2022/11/13 02:09:56;;;;;;;18.70;12.90;;;;;;;4.91;100.00;102415.72;5113292;28;20039;-75
2022/11/13 02:12:30;;;;;;;16.95;12.73;;;;;;;4.90;100.00;102416.69;5114167;28;20034;-76
2022/11/13 02:14:56;;;;;;;21.25;13.65;;;;;;;4.84;100.00;102407.50;5113307;28;20125;-75
2022/11/13 02:17:55;;;;;;;18.08;12.63;;;;;;;4.84;100.00;102414.59;5095580;28;20521;-76
2022/11/13 02:20:29;;;;;;;22.38;13.32;;;;;;;4.76;100.00;102407.34;5104347;28;20389;-75
2022/11/13 02:26:20;;;;;;;21.25;13.52;;;;;;;4.82;100.00;102392.72;5113706;28;20191;-76
2022/11/13 02:32:07;;;;;;;18.30;13.23;;;;;;;4.93;100.00;102395.25;5113745;28;20042;-76
2022/11/13 02:34:32;;;;;;;18.52;13.30;;;;;;;4.94;100.00;102397.75;5112871;28;20035;-76
2022/11/13 02:36:57;;;;;;;17.30;12.32;;;;;;;4.99;100.00;102400.00;5113641;28;20081;-77
2022/11/13 02:39:22;;;;;;;20.85;13.25;;;;;;;4.98;100.00;102393.84;5113036;28;20077;-78
2022/11/13 02:45:09;;;;;;;21.17;13.25;;;;;;;5.03;100.00;102388.13;5113058;28;20072;-79
2022/11/13 02:50:57;;;;;;;20.08;12.93;;;;;;;5.07;100.00;102386.03;5114461;28;20077;-79
2022/11/13 02:53:22;;;;;;;21.25;13.63;;;;;;;5.04;100.00;102378.38;5096949;28;20044;-80
2022/11/13 02:55:47;;;;;;;18.58;13.32;;;;;;;5.05;100.00;102375.56;5115297;28;20035;-80
2022/11/13 03:01:34;;;;;;;16.92;11.55;;;;;;;5.03;100.00;102371.38;5114707;28;20054;-78
2022/11/13 03:04:00;;;;;;;17.45;12.40;;;;;;;5.04;100.00;102378.38;5094722;28;20499;-78
2022/11/13 03:09:47;;;;;;;17.50;12.57;;;;;;;5.02;100.00;102377.66;5114708;28;20083;-79
2022/11/13 03:15:33;;;;;;;18.05;13.48;;;;;;;5.09;100.00;102361.06;5114603;28;20047;-79
2022/11/13 03:25:00;;;;;;;18.63;12.02;;;;;;;5.50;100.00;102361.72;5113963;28;20100;-78
2022/11/13 03:30:47;;;;;;;19.63;12.15;;;;;;;5.45;100.00;102355.97;5113669;28;20046;-80
2022/11/13 03:36:34;;;;;;;20.27;11.30;;;;;;;5.52;100.00;102352.63;5113554;28;20043;-80
2022/11/13 03:39:00;;;;;;;17.38;11.63;;;;;;;5.67;100.00;102350.34;5113905;28;20028;-80
2022/11/13 03:41:25;;;;;;;13.98;11.05;;;;;;;5.58;100.00;102344.09;5112445;28;20388;-80
2022/11/13 03:43:50;;;;;;;17.48;12.27;;;;;;;5.62;100.00;102338.50;5114065;28;20034;-81
2022/11/13 03:46:16;;;;;;;17.50;11.40;;;;;;;5.68;100.00;102349.34;5114882;28;20035;-81
2022/11/13 03:52:03;;;;;;;17.52;10.95;;;;;;;5.69;100.00;102342.22;5112843;28;20195;-81
2022/11/13 03:54:28;;;;;;;15.30;11.13;;;;;;;5.65;100.00;102327.59;5111861;28;20434;-82
2022/11/13 03:56:53;;;;;;;16.38;10.07;;;;;;;5.69;100.00;102331.63;5113005;28;20050;-82
2022/11/13 03:59:19;;;;;;;17.08;10.60;;;;;;;5.72;100.00;102326.00;5094138;28;20063;-80
2022/11/13 04:01:44;;;;;;;15.80;10.07;;;;;;;5.77;100.00;102327.25;5094736;28;20030;-81
2022/11/13 04:04:09;;;;;;;15.13;10.73;;;;;;;5.85;100.00;102329.19;5095728;28;20035;-81
2022/11/13 04:06:35;;;;;;;16.02;10.43;;;;;;;5.92;100.00;102321.50;5094774;28;20783;-78
2022/11/13 04:09:00;;;;;;;20.83;11.70;;;;;;;5.89;100.00;102315.50;5113780;28;20077;-81
2022/11/13 04:11:26;;;;;;;16.38;10.60;;;;;;;5.90;100.00;102317.19;5113013;28;20032;-78
2022/11/13 04:17:12;;;;;;;19.35;10.85;;;;;;;5.93;100.00;102309.91;5112589;28;20194;-76
2022/11/13 04:22:59;;;;;;;15.68;10.73;;;;;;;5.89;100.00;102299.56;5112506;28;20100;-76
2022/11/13 04:25:25;;;;;;;15.80;11.45;;;;;;;5.90;100.00;102306.56;5113304;28;20051;-76
2022/11/13 04:31:12;;;;;;;15.35;10.43;;;;;;;5.86;100.00;102299.00;5115142;28;20115;-76
2022/11/13 04:33:37;;;;;;;20.77;11.38;;;;;;;5.73;100.00;102285.22;5115493;28;20106;-79
2022/11/13 04:36:03;;;;;;;16.27;10.82;;;;;;;5.77;100.00;102292.75;5115808;28;20036;-78
2022/11/13 04:38:28;;;;;;;14.65;10.50;;;;;;;5.71;100.00;102280.06;5114748;28;20461;-80
2022/11/13 04:42:47;;;;;;;16.25;11.20;;;;;;;5.62;100.00;102269.50;5114409;28;20031;-79
2022/11/13 04:43:38;;;;;;;16.55;11.10;;;;;;;5.59;100.00;102275.94;5114435;28;20043;-79
2022/11/13 04:49:25;;;;;;;15.65;10.02;;;;;;;5.50;100.00;102271.50;5115892;28;20084;-80
2022/11/13 04:51:51;;;;;;;14.85;10.98;;;;;;;5.46;100.00;102280.72;5100191;28;20047;-79
2022/11/13 04:54:16;;;;;;;16.35;10.60;;;;;;;5.52;100.00;102278.34;5115410;28;20032;-80
2022/11/13 04:56:41;;;;;;;14.55;10.60;;;;;;;5.54;100.00;102280.84;5097235;28;20047;-76
2022/11/13 04:59:06;;;;;;;18.25;10.70;;;;;;;5.65;100.00;102278.00;5098035;28;20028;-79
2022/11/13 05:01:34;;;;;;;15.32;8.55;;;;;;;5.72;100.00;102280.91;5115216;28;20570;-77
2022/11/13 05:03:59;;;;;;;14.35;10.52;;;;;;;5.76;100.00;102276.97;5114457;28;20092;-77
2022/11/13 05:06:24;;;;;;;15.30;11.35;;;;;;;5.74;100.00;102279.75;5115073;28;20019;-78
2022/11/13 05:08:49;;;;;;;16.45;11.07;;;;;;;5.77;100.00;102278.63;5096657;28;20027;-79
2022/11/13 05:11:14;;;;;;;17.02;10.80;;;;;;;5.77;100.00;102286.59;5096362;28;20036;-79
2022/11/13 05:13:40;;;;;;;15.05;11.02;;;;;;;5.66;100.00;102290.28;5114961;28;20046;-78
2022/11/13 05:16:08;;;;;;;20.92;11.88;;;;;;;5.65;100.00;102288.63;5114031;28;20039;-78
2022/11/13 05:18:35;;;;;;;17.15;11.23;;;;;;;5.53;100.00;102281.84;5115035;28;20034;-77
2022/11/13 05:24:21;;;;;;;16.45;11.48;;;;;;;5.33;100.00;102278.41;5115048;28;20541;-76
2022/11/13 05:30:09;;;;;;;18.63;11.90;;;;;;;5.18;100.00;102270.06;5115173;28;20050;-75
2022/11/13 05:36:03;;;;;;;19.00;12.18;;;;;;;4.98;100.00;102260.50;5114763;28;20188;-75
2022/11/13 05:41:50;;;;;;;20.80;11.77;;;;;;;4.86;100.00;102253.66;5114848;28;20050;-75
2022/11/13 05:44:15;;;;;;;21.30;11.50;;;;;;;4.85;100.00;102262.59;5114570;28;20028;-76
2022/11/13 05:46:40;;;;;;;15.75;10.75;;;;;;;4.77;100.00;102259.81;5095586;28;20039;-76
2022/11/13 05:52:27;;;;;;;17.45;10.70;;;;;;;4.55;100.00;102261.75;5113779;28;20122;-77
2022/11/13 05:54:52;;;;;;;20.27;11.57;;;;;;;4.46;100.00;102251.19;5114123;28;20114;-76
2022/11/13 05:57:18;;;;;;;17.98;11.43;;;;;;;4.40;100.00;102257.88;5096017;28;20032;-77
2022/11/13 05:59:43;;;;;;;16.88;11.15;;;;;;;4.36;100.00;102267.06;5095494;28;20139;-76
2022/11/13 06:02:08;;;;;;;18.23;11.43;;;;;;;4.23;100.00;102256.72;5114332;28;20035;-79
2022/11/13 06:04:33;;;;;;;17.80;12.32;;;;;;;4.17;100.00;102256.44;5114169;28;20019;-78
2022/11/13 06:06:59;;;;;;;17.27;11.80;;;;;;;4.14;100.00;102262.03;5095407;28;20042;-78
2022/11/13 06:09:24;;;;;;;17.90;11.95;;;;;;;4.03;100.00;102258.50;5112659;28;20400;-77
2022/11/13 06:11:49;;;;;;;20.95;12.30;;;;;;;3.97;100.00;102260.88;5113118;28;20515;-77
2022/11/13 06:14:15;;;;;;;18.13;12.20;;;;;;;3.91;100.00;102253.47;5113860;28;20088;-76
2022/11/13 06:20:02;;;;;;;18.63;10.55;;;;;;;3.85;100.00;102241.63;5114121;28;20555;-77
2022/11/13 06:22:27;;;;;;;22.55;12.77;;;;;;;3.78;100.00;102242.31;5113807;28;20055;-76
2022/11/13 06:28:14;;;;;;;17.13;11.52;;;;;;;3.71;100.00;102244.63;5114090;28;20046;-77
2022/11/13 06:30:40;;;;;;;21.73;12.75;;;;;;;3.65;100.00;102240.72;5094719;28;20035;-75
2022/11/13 06:33:05;;;;;;;20.15;11.57;;;;;;;3.63;100.00;102233.91;5113616;28;20581;-75
2022/11/13 06:35:31;;;;;;;17.65;11.55;;;;;;;3.63;100.00;102242.66;5113565;28;20396;-75
2022/11/13 06:37:56;;;;;;;20.05;11.65;;;;;;;3.59;100.00;102240.44;5094760;28;20043;-74
2022/11/13 06:40:21;;;;;;;17.48;11.57;;;;;;;3.51;100.00;102227.06;5113431;28;20472;-76
2022/11/13 06:42:46;;;;;;;18.63;12.02;;;;;;;3.47;100.00;102231.78;5112657;28;20480;-76
2022/11/13 06:48:33;;;;;;;15.20;10.38;;;;;;;3.38;100.00;102232.56;5113061;28;20084;-75
2022/11/13 06:51:01;;;;;;;16.60;11.32;;;;;;;3.30;100.00;102233.22;5094520;28;20040;-75
2022/11/13 06:53:27;;;;;;;16.73;11.63;;;;;;;3.25;100.00;102224.84;5113549;28;20061;-74
2022/11/13 06:55:52;;;;;;;14.52;10.85;;;;;;;3.22;100.00;102226.94;5112601;28;20040;-76
2022/11/13 06:58:17;;;;;;;16.88;11.07;;;;;;;3.19;100.00;102230.69;5095125;28;20023;-75
2022/11/13 07:00:43;;;;;;;19.98;12.07;;;;;;;3.16;100.00;102220.34;5113387;28;20024;-75
2022/11/13 07:03:15;;;;;;;18.50;11.90;;;;;;;3.21;100.00;102227.91;5094405;28;20054;-76
2022/11/13 07:05:40;;;;;;;18.02;12.48;;;;;;;3.16;100.00;102220.34;5095029;28;20020;-76
2022/11/13 07:08:05;;;;;;;21.50;12.60;;;;;;;3.27;100.00;102219.44;5111206;28;20043;-77
2022/11/13 07:10:31;;;;;;;20.83;13.43;;;;;;;3.57;100.00;102226.50;5113336;28;20476;-77
2022/11/13 07:12:59;;;;;;;23.67;13.63;;;;;;;3.79;100.00;102217.53;5113043;28;20035;-77
2022/11/13 07:15:25;;;;;;;23.55;14.40;;;;;;;4.02;100.00;102219.78;5094216;28;20036;-77
2022/11/13 07:17:50;;;;;;;25.55;14.63;;;;;;;4.12;100.00;102226.91;5094662;28;20341;-77
2022/11/13 07:20:16;;;;;;;23.13;14.10;;;;;;;3.99;100.00;102200.69;5112356;28;20094;-77
2022/11/13 07:22:41;;;;;;;19.50;13.35;;;;;;;4.14;100.00;102215.22;5112602;28;20095;-77
2022/11/13 07:25:07;;;;;;;19.23;12.68;;;;;;;4.50;100.00;102226.91;5113033;28;20031;-77
2022/11/13 07:27:32;;;;;;;20.02;13.43;;;;;;;4.69;100.00;102212.84;5111894;28;20053;-76
2022/11/13 07:29:57;;;;;;;21.25;14.82;;;;;;;4.80;100.00;102222.44;5094622;28;20023;-77
2022/11/13 07:32:22;;;;;;;19.95;13.40;;;;;;;5.06;100.00;102212.88;5112996;28;20475;-75
2022/11/13 07:34:48;;;;;;;18.60;12.52;;;;;;;5.53;100.00;102220.81;5112182;28;20048;-75
2022/11/13 07:40:34;;;;;;;16.45;10.27;;;;;;;6.40;100.00;102213.16;5112991;28;20046;-76
2022/11/13 07:43:01;;;;;;;17.52;11.93;;;;;;;6.78;100.00;102213.78;5112512;28;20028;-76
2022/11/13 07:45:27;;;;;;;17.02;10.88;;;;;;;6.71;100.00;102215.38;5112179;28;20032;-76
2022/11/13 07:51:14;;;;;;;16.00;10.32;;;;;;;6.78;100.00;102208.47;5113403;28;20054;-77
2022/11/13 07:53:40;;;;;;;17.33;11.52;;;;;;;7.35;100.00;102216.78;5111757;28;20043;-76
2022/11/13 07:56:06;;;;;;;14.85;11.05;;;;;;;7.52;100.00;102215.88;5112587;28;20024;-76
2022/11/13 07:58:31;;;;;;;15.10;10.50;;;;;;;7.61;100.00;102216.72;5111625;28;20054;-75
2022/11/13 08:01:02;;;;;;;15.60;11.02;;;;;;;8.19;100.00;102213.22;5094210;28;20392;-74
2022/11/13 08:03:27;;;;;;;19.17;12.73;;;;;;;8.49;100.00;102209.13;5094282;28;20035;-75
2022/11/13 08:06:02;;;;;;;13.52;9.68;;;;;;;8.21;100.00;102204.06;5111718;28;20123;-76
2022/11/13 08:11:49;;;;;;;21.33;12.13;;;;;;;7.87;100.00;102212.16;5109038;28;20034;-75
2022/11/13 08:14:14;;;;;;;22.83;11.83;;;;;;;8.22;100.00;102208.41;5112435;28;20035;-75
2022/11/13 08:16:40;;;;;;;20.47;11.77;;;;;;;8.47;100.00;102176.47;5112168;28;20285;-75
2022/11/13 08:19:05;;;;;;;17.50;12.60;;;;;;;8.78;100.00;102212.09;5111571;28;20746;-75
2022/11/13 08:21:30;;;;;;;18.90;12.57;;;;;;;8.51;100.00;102207.13;5112387;28;20112;-75
2022/11/13 08:23:55;;;;;;;18.63;12.10;;;;;;;8.37;100.00;102198.75;5111721;28;20622;-75
2022/11/13 08:26:21;;;;;;;17.13;13.40;;;;;;;8.43;100.00;102196.47;5111873;28;20093;-75
2022/11/13 08:28:47;;;;;;;20.77;14.18;;;;;;;8.59;100.00;102196.44;5112093;28;20042;-76
2022/11/13 08:31:14;;;;;;;20.58;13.30;;;;;;;8.77;100.00;102194.44;5111024;28;20048;-75
2022/11/13 08:37:01;;;;;;;17.98;12.80;;;;;;;8.49;100.00;102188.63;5111976;28;20169;-75
2022/11/13 08:39:26;;;;;;;20.30;13.32;;;;;;;8.41;100.00;102196.63;5111892;28;20110;-75
2022/11/13 08:45:13;;;;;;;22.13;13.88;;;;;;;8.12;100.00;102189.06;5111856;28;20269;-75
2022/11/13 08:51:00;;;;;;;19.00;13.27;;;;;;;8.07;100.00;102186.88;5111975;28;20065;-76
2022/11/13 08:56:48;;;;;;;18.67;12.10;;;;;;;8.05;100.00;102188.03;5112393;28;20083;-75
2022/11/13 08:59:14;;;;;;;21.00;13.60;;;;;;;8.07;100.00;102180.72;5111821;28;20027;-75
2022/11/13 09:01:39;;;;;;;18.17;13.57;;;;;;;8.07;100.00;102181.56;5092653;28;20571;-74
2022/11/13 09:07:26;;;;;;;25.38;14.82;;;;;;;8.29;100.00;102181.91;5112032;28;20039;-74
2022/11/13 09:13:13;;;;;;;20.52;13.38;;;;;;;8.45;100.00;102171.31;5115242;28;20039;-75
2022/11/13 09:19:00;;;;;;;21.38;13.35;;;;;;;8.66;100.00;102176.09;5115422;28;20074;-76
2022/11/13 09:24:47;;;;;;;21.02;13.10;;;;;;;8.68;100.00;102166.13;5115129;28;20050;-74
2022/11/13 09:27:13;;;;;;;19.88;14.15;;;;;;;8.76;100.00;102167.94;5096019;28;20048;-76
2022/11/13 09:29:38;;;;;;;20.52;13.85;;;;;;;8.78;100.00;102163.25;5114857;28;20092;-76
2022/11/13 09:32:03;;;;;;;20.23;13.98;;;;;;;8.83;100.00;102164.41;5113429;28;20027;-76
2022/11/13 09:34:29;;;;;;;18.45;13.75;;;;;;;8.85;100.00;102166.91;5113989;28;20039;-74
2022/11/13 09:36:54;;;;;;;18.85;14.32;;;;;;;8.93;100.00;102166.88;5114782;28;20072;-76
2022/11/13 09:42:41;;;;;;;17.73;11.85;;;;;;;9.14;100.00;102171.66;5115032;28;20115;-74
2022/11/13 09:48:39;;;;;;;22.83;12.55;;;;;;;9.35;100.00;102163.94;5115037;28;20519;-76
2022/11/13 09:54:27;;;;;;;15.00;11.45;;;;;;;9.51;100.00;102169.19;5114821;28;20526;-77
2022/11/13 10:00:19;;;;;;;16.55;11.30;;;;;;;9.63;100.00;102161.63;5114280;28;20494;-76
2022/11/13 10:06:18;;;;;;;18.65;11.52;;;;;;;9.92;100.00;102160.94;5114625;28;20042;-78
2022/11/13 10:08:54;;;;;;;16.83;12.20;;;;;;;10.06;100.00;102162.84;5096102;28;20046;-79
2022/11/13 10:11:47;;;;;;;16.98;11.93;;;;;;;10.87;100.00;102164.00;5113493;28;20392;-77
2022/11/13 10:17:42;;;;;;;13.80;9.80;;;;;;;14.46;80.35;102167.44;5114510;28;20405;-75
2022/11/13 10:23:32;;;;;;;14.48;10.10;;;;;;;14.87;75.52;102162.63;5113072;28;20100;-75
2022/11/13 10:26:13;;;;;;;15.73;10.32;;;;;;;14.65;74.46;102146.91;5113909;28;20433;-74
2022/11/13 10:28:40;;;;;;;14.95;10.20;;;;;;;13.85;77.91;102146.81;5113106;28;20042;-76
2022/11/13 10:34:28;;;;;;;15.43;10.18;;;;;;;12.37;82.21;102141.88;5113878;28;20050;-76
2022/11/13 10:40:29;;;;;;;16.77;11.80;;;;;;;11.64;89.06;102131.44;5113653;28;20046;-77
2022/11/13 10:46:23;;;;;;;15.82;12.68;;;;;;;11.31;90.79;102133.75;5113966;28;20126;-77
2022/11/13 10:52:18;;;;;;;19.30;13.77;;;;;;;11.28;94.86;102116.19;5113222;28;20035;-75
2022/11/13 10:58:18;;;;;;;19.23;13.52;;;;;;;11.35;92.98;102103.72;5113723;28;20046;-76
2022/11/13 11:00:47;;;;;;;18.90;14.23;;;;;;;11.34;94.47;102101.22;5112545;28;20476;-75
2022/11/13 11:03:22;;;;;;;20.70;14.93;;;;;;;11.71;94.16;102097.50;5112941;28;20028;-75
2022/11/13 11:05:58;;;;;;;21.30;13.80;;;;;;;12.37;90.52;102106.19;5094127;28;20506;-74
2022/11/13 11:08:32;;;;;;;19.67;13.77;;;;;;;12.39;88.30;102096.91;5112859;28;20023;-76
2022/11/13 11:17:49;;;;;;;21.23;14.23;;;;;;;12.14;94.25;102079.56;5113295;28;20399;-76
2022/11/13 11:20:41;;;;;;;21.80;13.52;;;;;;;12.14;92.87;102086.78;5094397;28;20023;-76
2022/11/13 11:26:44;;;;;;;21.42;14.38;;;;;;;12.30;93.07;102086.53;5112726;28;20080;-75
2022/11/13 11:29:32;;;;;;;18.58;12.68;;;;;;;12.33;92.07;102086.13;5111719;28;20071;-76
2022/11/13 11:32:04;;;;;;;21.15;15.13;;;;;;;12.30;90.66;102073.94;5112353;28;20062;-76
2022/11/13 11:38:03;;;;;;;18.13;13.57;;;;;;;12.24;90.20;102072.03;5112510;28;20043;-76
2022/11/13 11:44:19;;;;;;;20.45;15.27;;;;;;;12.56;93.01;102059.06;5112526;28;20062;-76
2022/11/13 11:46:44;;;;;;;20.90;14.95;;;;;;;12.72;88.99;102048.00;5038751;28;20051;-77
2022/11/13 11:52:55;;;;;;;22.63;15.10;;;;;;;12.76;88.01;102032.34;5112433;28;20462;-76
2022/11/13 11:55:42;;;;;;;20.30;14.55;;;;;;;12.78;89.26;102030.28;5112235;28;20035;-77
2022/11/13 11:58:22;;;;;;;19.33;14.43;;;;;;;12.93;88.68;102025.59;5093346;28;20136;-76
2022/11/13 12:00:56;;;;;;;20.75;13.02;;;;;;;13.56;83.71;102023.53;5112253;28;20505;-77
2022/11/13 12:03:39;;;;;;;20.23;14.25;;;;;;;14.20;81.30;102026.44;5112318;28;20089;-77
2022/11/13 12:06:07;;;;;;;19.55;13.18;;;;;;;14.42;75.43;102023.50;5093686;28;20072;-77
2022/11/13 12:08:50;;;;;;;18.42;12.90;;;;;;;14.45;79.52;102023.09;5093141;28;20128;-76
2022/11/13 12:11:33;;;;;;;16.95;12.43;;;;;;;14.64;74.11;102018.72;5112037;28;20031;-77
2022/11/13 12:14:12;;;;;;;19.30;12.23;;;;;;;14.32;77.68;102006.97;5093460;28;20100;-76
2022/11/13 12:16:56;;;;;;;20.75;12.27;;;;;;;14.08;80.68;102027.28;5092937;28;20057;-76
2022/11/13 12:19:50;;;;;;;17.00;11.55;;;;;;;13.97;82.47;102015.28;5111936;28;20031;-76
2022/11/13 12:22:45;;;;;;;13.68;9.57;;;;;;;14.41;78.13;102005.69;5092937;28;20055;-76
2022/11/13 12:25:20;;;;;;;13.07;9.30;;;;;;;14.87;73.03;101998.34;5111906;28;20024;-77
2022/11/13 12:27:55;;;;;;;13.02;8.10;;;;;;;15.38;69.38;101991.22;5110913;28;20185;-76
2022/11/13 12:30:27;;;;;;;11.75;9.15;;;;;;;16.40;67.93;101998.84;5093585;28;20475;-76
2022/11/13 12:32:58;;;;;;;12.07;7.82;;;;;;;16.99;63.66;101993.81;5110773;28;20048;-77
2022/11/13 12:35:25;;;;;;;11.77;8.32;;;;;;;16.97;60.19;101977.84;5111753;28;20256;-77
2022/11/13 12:38:09;;;;;;;13.05;8.98;;;;;;;17.43;60.70;101981.75;5093093;28;20063;-76
2022/11/13 12:40:44;;;;;;;12.55;8.10;;;;;;;17.59;57.65;101972.97;5111646;28;20028;-76
2022/11/13 12:43:40;;;;;;;14.65;7.68;;;;;;;17.54;59.24;101972.03;5093384;28;20456;-76
2022/11/13 12:46:08;;;;;;;9.88;6.47;;;;;;;16.88;57.85;101962.19;5110215;28;20039;-77
2022/11/13 12:48:43;;;;;;;16.48;7.90;;;;;;;16.34;61.28;101956.56;5115600;28;20484;-76
2022/11/13 12:51:12;;;;;;;10.48;7.10;;;;;;;16.10;60.95;101949.34;5114293;28;20074;-77
2022/11/13 12:53:47;;;;;;;9.90;7.28;;;;;;;15.55;63.49;101943.81;5096841;28;20024;-77
2022/11/13 12:56:19;;;;;;;10.82;7.95;;;;;;;15.18;66.21;101938.28;5096666;28;20047;-77
2022/11/13 12:59:16;;;;;;;11.68;8.30;;;;;;;15.06;67.75;101939.19;5114880;28;20114;-77
2022/11/13 13:01:57;;;;;;;14.55;8.60;;;;;;;14.82;68.36;101938.09;5106635;28;20051;-77
2022/11/13 13:04:44;;;;;;;12.40;8.07;;;;;;;14.92;71.12;101937.59;5096820;28;20020;-76
2022/11/13 13:07:26;;;;;;;12.55;9.15;;;;;;;15.52;70.39;101932.63;5095953;28;20067;-76
2022/11/13 13:09:57;;;;;;;11.38;8.52;;;;;;;15.58;70.73;101923.66;5096481;28;20185;-76
2022/11/13 13:12:40;;;;;;;13.48;8.13;;;;;;;15.44;69.44;101918.41;5114638;28;20059;-77
2022/11/13 13:15:21;;;;;;;12.57;8.02;;;;;;;15.28;70.89;101910.00;5091112;28;20204;-76
2022/11/13 13:17:46;;;;;;;11.93;7.60;;;;;;;14.99;67.27;101911.44;5114563;28;20059;-75
2022/11/13 13:20:11;;;;;;;15.18;7.72;;;;;;;14.85;67.72;101905.34;5113979;28;20109;-76
2022/11/13 13:22:36;;;;;;;11.23;7.03;;;;;;;14.67;69.48;101897.97;5115064;28;20066;-76
2022/11/13 13:25:30;;;;;;;11.82;7.20;;;;;;;14.52;70.21;101895.56;5114022;28;20052;-77
2022/11/13 13:27:59;;;;;;;;;;;;;;;14.48;71.44;101886.28;5104497;28;20032;-77
2022/11/13 13:30:26;;;;;;;10.50;6.82;;;;;;;14.53;72.98;101873.00;5099339;28;20021;-77
2022/11/13 13:33:17;;;;;;;11.73;7.05;;;;;;;14.47;71.75;101873.03;5096051;28;20024;-76
2022/11/13 13:36:01;;;;;;;10.55;6.63;;;;;;;14.38;74.01;101856.25;5114621;28;20035;-76
2022/11/13 13:38:54;;;;;;;9.73;6.43;;;;;;;14.46;71.16;101858.75;5092162;28;20040;-76
2022/11/13 13:41:43;;;;;;;8.25;5.95;;;;;;;14.50;72.73;101856.44;5114765;28;20424;-77
2022/11/13 13:44:33;;;;;;;10.18;5.80;;;;;;;14.48;72.14;101845.91;5104907;28;20549;-77
2022/11/13 13:46:59;;;;;;;9.90;6.30;;;;;;;14.49;74.25;101850.25;5095849;28;20044;-76
2022/11/13 13:49:27;;;;;;;11.88;7.03;;;;;;;14.35;71.27;101843.22;5095538;28;20143;-77
2022/11/13 13:51:55;;;;;;;8.75;6.10;;;;;;;14.57;74.67;101855.38;5095655;28;20039;-76
2022/11/13 13:54:29;;;;;;;11.00;7.20;;;;;;;14.67;72.91;101841.44;5095280;28;20054;-76
2022/11/13 13:56:56;;;;;;;11.75;8.07;;;;;;;14.89;74.13;101855.38;5097093;28;20067;-77
2022/11/13 13:59:30;;;;;;;13.90;8.77;;;;;;;15.06;73.72;101853.81;5095281;28;20142;-77
2022/11/13 14:01:58;;;;;;;13.80;9.52;;;;;;;15.02;71.43;101857.16;5114078;28;20043;-76
2022/11/13 14:04:29;;;;;;;13.65;8.57;;;;;;;14.91;70.46;101857.84;5097439;28;20070;-76
2022/11/13 14:10:19;;;;;;;11.63;8.65;;;;;;;14.51;74.23;101852.72;5114369;28;20438;-77
2022/11/13 14:12:45;;;;;;;15.43;10.05;;;;;;;14.26;75.48;101844.53;5112870;28;20039;-77
2022/11/13 14:15:27;;;;;;;13.45;9.82;;;;;;;14.10;79.43;101851.19;5113515;28;20032;-77
2022/11/13 14:18:12;;;;;;;17.90;10.52;;;;;;;13.92;77.99;101838.44;5112812;28;20127;-78
2022/11/13 14:20:39;;;;;;;13.70;9.93;;;;;;;13.79;79.94;101845.69;5113861;28;20027;-77
2022/11/13 14:23:05;;;;;;;15.88;9.35;;;;;;;13.66;79.74;101849.25;5094579;28;20039;-78
2022/11/13 14:25:30;;;;;;;14.38;8.95;;;;;;;13.59;80.60;101840.38;5113584;28;20034;-77
2022/11/13 14:31:17;;;;;;;13.82;9.68;;;;;;;13.44;80.42;101832.53;5113741;28;20084;-77
2022/11/13 14:33:46;;;;;;;12.48;8.77;;;;;;;13.41;80.47;101840.19;5113525;28;20039;-77
2022/11/13 14:36:13;;;;;;;13.15;8.77;;;;;;;13.35;82.25;101835.66;5112495;28;20031;-78
2022/11/13 14:38:46;;;;;;;13.50;8.73;;;;;;;13.28;80.71;101836.47;5094869;28;20031;-76
2022/11/13 14:41:22;;;;;;;17.73;9.32;;;;;;;13.23;80.94;101833.56;5112378;28;20062;-77
2022/11/13 14:43:50;;;;;;;13.25;8.48;;;;;;;13.19;82.36;101836.88;5094787;28;20034;-77
2022/11/13 14:46:26;;;;;;;14.05;8.73;;;;;;;13.13;81.13;101835.00;5112291;28;20055;-77
2022/11/13 14:48:54;;;;;;;13.85;8.55;;;;;;;13.10;80.55;101838.09;5113176;28;20047;-77
2022/11/13 14:51:28;;;;;;;11.60;8.00;;;;;;;13.07;79.90;101833.16;5113106;28;20028;-77
2022/11/13 14:54:03;;;;;;;12.23;7.60;;;;;;;13.02;80.21;101826.53;5106086;28;20050;-77
2022/11/13 14:56:42;;;;;;;13.32;7.88;;;;;;;12.92;81.58;101826.09;5113091;28;20038;-77
2022/11/13 15:02:29;;;;;;;13.50;9.02;;;;;;;12.76;82.67;101820.31;5113136;28;20476;-77
2022/11/13 15:04:54;;;;;;;12.13;8.13;;;;;;;12.68;82.37;101815.94;5112098;28;20070;-77
2022/11/13 15:07:31;;;;;;;13.05;9.27;;;;;;;12.64;82.56;101815.53;5112754;28;20273;-76
2022/11/13 15:13:18;;;;;;;15.82;8.18;;;;;;;12.49;82.24;101806.84;5112871;28;20545;-77
2022/11/13 15:15:43;;;;;;;14.40;7.95;;;;;;;12.44;82.53;101811.16;5111968;28;20043;-78
2022/11/13 15:18:15;;;;;;;12.50;8.65;;;;;;;12.32;83.90;101806.38;5111518;28;20042;-78